Time;durP1;ratioP1;P1;durP2;ratioP2;P2;SDS_P1;SDS_P2;PMS_P1;PMS_P2;Temp;Humidity;BMP_temperature;BMP_pressure;BME280_temperature;BME280_humidity;BME280_pressure;Samples;Min_cycle;Max_cycle;Signal;HPM_P1;HPM_P2
2022/07/14 00:00:59;;;;;;;3.47;1.50;;;19.80;99.90;;;;;;5030244;28;20642;-77
2022/07/14 00:03:25;;;;;;;4.65;1.20;;;19.80;99.90;;;;;;5024872;28;20034;-77
2022/07/14 00:05:51;;;;;;;2.17;1.35;;;19.80;99.90;;;;;;5030681;28;20025;-77
2022/07/14 00:08:17;;;;;;;2.17;1.38;;;19.70;99.90;;;;;;5029900;28;20030;-77
2022/07/14 00:10:43;;;;;;;3.05;1.42;;;19.70;99.90;;;;;;5030915;28;20033;-77
2022/07/14 00:13:08;;;;;;;3.80;1.20;;;19.70;99.90;;;;;;5023951;28;20033;-77
2022/07/14 00:15:34;;;;;;;4.10;1.58;;;19.70;99.90;;;;;;5017740;28;20062;-77
2022/07/14 00:18:00;;;;;;;6.07;1.38;;;19.70;99.90;;;;;;5019302;28;20029;-77
2022/07/14 00:20:26;;;;;;;2.25;1.30;;;19.70;99.90;;;;;;5031064;28;20025;-77
2022/07/14 00:22:53;;;;;;;4.18;1.20;;;19.70;99.90;;;;;;5030722;28;20087;-77
2022/07/14 00:25:19;;;;;;;4.15;1.30;;;19.70;99.90;;;;;;5030975;28;20087;-77
2022/07/14 00:27:45;;;;;;;4.60;1.50;;;19.80;99.90;;;;;;5030843;28;20057;-77
2022/07/14 00:30:11;;;;;;;4.63;1.60;;;19.70;99.90;;;;;;5020736;28;20105;-77
2022/07/14 00:32:36;;;;;;;2.35;1.30;;;19.70;99.90;;;;;;5027045;28;20033;-77
2022/07/14 00:35:06;;;;;;;4.82;1.95;;;19.80;99.90;;;;;;5030893;28;20426;-77
2022/07/14 00:37:32;;;;;;;5.80;1.30;;;19.80;99.90;;;;;;5030781;28;20033;-77
2022/07/14 00:39:58;;;;;;;4.90;1.40;;;19.80;99.90;;;;;;5009721;28;20064;-77
2022/07/14 00:42:36;;;;;;;3.15;1.40;;;19.80;99.90;;;;;;5023785;28;20458;-77
2022/07/14 00:45:13;;;;;;;3.20;1.48;;;19.80;99.90;;;;;;5016763;28;20030;-77
2022/07/14 00:47:41;;;;;;;5.47;1.58;;;19.80;99.90;;;;;;5014424;28;20113;-77
2022/07/14 00:50:08;;;;;;;6.03;1.40;;;19.80;99.90;;;;;;5025677;28;20355;-77
2022/07/14 00:52:34;;;;;;;4.55;1.23;;;19.80;99.90;;;;;;5032359;28;20481;-77
2022/07/14 00:55:00;;;;;;;5.68;1.40;;;19.80;99.90;;;;;;5031337;28;20059;-77
2022/07/14 00:57:25;;;;;;;3.58;1.40;;;19.80;99.90;;;;;;5024806;28;20522;-77
2022/07/14 00:59:51;;;;;;;4.65;1.30;;;19.90;99.90;;;;;;5011034;28;20056;-77
2022/07/14 01:02:18;;;;;;;1.95;1.25;;;19.90;99.90;;;;;;5016073;28;20034;-77
2022/07/14 01:04:45;;;;;;;4.60;1.73;;;19.90;99.90;;;;;;5024354;28;20033;-77
2022/07/14 01:07:12;;;;;;;4.22;1.30;;;19.80;99.90;;;;;;5019609;28;20030;-77
2022/07/14 01:09:38;;;;;;;4.57;1.25;;;19.80;99.90;;;;;;5029902;28;20412;-77
2022/07/14 01:12:04;;;;;;;3.97;1.27;;;19.80;99.90;;;;;;5030533;28;20068;-77
2022/07/14 01:14:30;;;;;;;3.55;1.30;;;19.80;99.90;;;;;;5015864;28;20049;-77
2022/07/14 01:16:57;;;;;;;3.00;1.50;;;19.80;99.90;;;;;;5021386;28;20109;-77
2022/07/14 01:19:24;;;;;;;3.08;1.15;;;19.80;99.90;;;;;;5015185;28;20030;-77
2022/07/14 01:21:54;;;;;;;3.95;1.35;;;19.80;99.90;;;;;;5033180;28;20044;-77
2022/07/14 01:24:21;;;;;;;4.78;1.27;;;19.80;99.90;;;;;;5034195;28;20113;-77
2022/07/14 01:26:46;;;;;;;4.00;1.40;;;19.80;99.90;;;;;;5034251;28;20374;-77
2022/07/14 01:29:12;;;;;;;3.80;1.10;;;19.90;99.90;;;;;;5034134;28;20044;-77
2022/07/14 01:31:38;;;;;;;2.70;1.15;;;19.80;99.90;;;;;;5026329;28;20426;-78
2022/07/14 01:34:03;;;;;;;2.05;1.13;;;19.80;99.90;;;;;;5014281;28;20034;-77
2022/07/14 01:36:29;;;;;;;3.65;1.20;;;19.80;99.90;;;;;;5019890;28;20033;-77
2022/07/14 01:38:54;;;;;;;4.47;1.45;;;19.80;99.90;;;;;;5034025;28;20034;-77
2022/07/14 01:41:21;;;;;;;4.38;1.40;;;19.90;99.90;;;;;;5033630;28;20110;-77
2022/07/14 01:43:47;;;;;;;1.98;1.45;;;19.90;99.90;;;;;;5034051;28;20030;-77
2022/07/14 01:46:13;;;;;;;3.65;1.30;;;19.90;99.90;;;;;;5031822;28;20033;-78
2022/07/14 01:48:39;;;;;;;2.38;1.40;;;19.90;99.90;;;;;;5031864;28;20033;-78
2022/07/14 01:51:04;;;;;;;1.60;1.23;;;19.90;99.90;;;;;;5028132;28;20034;-77
2022/07/14 01:53:30;;;;;;;3.22;1.27;;;19.90;99.90;;;;;;5029999;28;20026;-78
2022/07/14 01:55:57;;;;;;;3.38;1.20;;;19.90;99.90;;;;;;5033730;28;20029;-78
2022/07/14 01:58:22;;;;;;;3.75;1.20;;;19.90;99.90;;;;;;5033613;28;20021;-78
2022/07/14 02:01:39;;;;;;;2.40;1.50;;;19.90;99.90;;;;;;5033800;28;20079;-77
2022/07/14 02:03:33;;;;;;;2.13;1.30;;;19.80;99.90;;;;;;5031833;28;20032;-77
2022/07/14 02:06:00;;;;;;;3.20;1.40;;;19.80;99.90;;;;;;5020665;28;20029;-77
2022/07/14 02:08:26;;;;;;;4.40;1.83;;;19.80;99.90;;;;;;5031744;28;20018;-77
2022/07/14 02:13:35;;;;;;;1.58;1.27;;;19.80;99.90;;;;;;5016811;28;20375;-76
2022/07/14 02:16:01;;;;;;;2.17;1.20;;;19.70;99.90;;;;;;5005213;28;20026;-76
2022/07/14 02:18:26;;;;;;;1.95;1.27;;;19.60;99.90;;;;;;5027747;28;20032;-76
2022/07/14 02:20:52;;;;;;;3.42;1.70;;;19.60;99.90;;;;;;5023122;28;20057;-76
2022/07/14 02:23:17;;;;;;;3.75;1.33;;;19.50;99.90;;;;;;5031913;28;20021;-77
2022/07/14 02:25:43;;;;;;;4.75;1.48;;;19.50;99.90;;;;;;5013364;28;20026;-77
2022/07/14 02:28:08;;;;;;;2.50;1.35;;;19.40;99.90;;;;;;4995303;28;20386;-77
2022/07/14 02:30:34;;;;;;;4.68;1.30;;;19.30;99.90;;;;;;5031779;28;20026;-76
2022/07/14 02:33:00;;;;;;;5.20;1.40;;;19.30;99.90;;;;;;5027979;28;20029;-77
2022/07/14 02:35:26;;;;;;;3.60;1.45;;;19.20;99.90;;;;;;5032955;28;20026;-77
2022/07/14 02:37:52;;;;;;;4.60;1.40;;;19.20;99.90;;;;;;5031584;28;20087;-77
2022/07/14 02:40:17;;;;;;;2.40;1.45;;;19.20;99.90;;;;;;5032269;28;20450;-77
2022/07/14 02:42:43;;;;;;;3.60;1.48;;;19.20;99.90;;;;;;5013143;28;20025;-76
2022/07/14 02:45:09;;;;;;;4.45;1.23;;;19.10;99.90;;;;;;5025379;28;20087;-76
2022/07/14 02:47:35;;;;;;;2.33;1.30;;;19.10;99.90;;;;;;5004737;28;20022;-76
2022/07/14 02:50:00;;;;;;;2.28;1.27;;;19.10;99.90;;;;;;5032782;28;20037;-76
2022/07/14 02:52:26;;;;;;;2.85;1.30;;;19.10;99.90;;;;;;5032483;28;20090;-76
2022/07/14 02:54:52;;;;;;;3.47;1.40;;;19.00;99.90;;;;;;5020182;28;20101;-77
2022/07/14 02:57:17;;;;;;;2.15;1.20;;;19.00;99.90;;;;;;5027635;28;20029;-77
2022/07/14 02:59:43;;;;;;;2.97;1.40;;;19.00;99.90;;;;;;5032364;28;20060;-78
2022/07/14 03:02:09;;;;;;;4.18;1.40;;;19.00;99.90;;;;;;5032514;28;20033;-78
2022/07/14 03:04:35;;;;;;;1.60;1.23;;;18.90;99.90;;;;;;5032071;28;20049;-77
2022/07/14 03:07:01;;;;;;;1.92;1.20;;;18.90;99.90;;;;;;5014741;28;20029;-78
2022/07/14 03:09:27;;;;;;;2.25;1.13;;;18.90;99.90;;;;;;5024098;28;20033;-78
2022/07/14 03:11:53;;;;;;;3.28;1.30;;;18.90;99.90;;;;;;5031384;28;20382;-78
2022/07/14 03:14:18;;;;;;;2.45;1.20;;;18.90;99.90;;;;;;4997356;28;20495;-78
2022/07/14 03:16:44;;;;;;;3.72;1.70;;;18.90;99.90;;;;;;5011874;28;20018;-78
2022/07/14 03:19:09;;;;;;;1.77;1.30;;;18.90;99.90;;;;;;5023633;28;20029;-77
2022/07/14 03:21:35;;;;;;;2.38;1.30;;;18.90;99.90;;;;;;5028474;28;20112;-78
2022/07/14 03:24:01;;;;;;;2.28;1.20;;;18.90;99.90;;;;;;5012226;28;20030;-77
2022/07/14 03:26:28;;;;;;;2.55;1.50;;;18.90;99.90;;;;;;5027540;28;20072;-77
2022/07/14 03:28:54;;;;;;;4.82;1.67;;;19.00;99.90;;;;;;5032187;28;20056;-77
2022/07/14 03:31:19;;;;;;;3.28;1.40;;;18.90;99.90;;;;;;5025406;28;20034;-77
2022/07/14 03:33:47;;;;;;;3.92;1.20;;;18.90;99.90;;;;;;5031740;28;20025;-77
2022/07/14 03:36:13;;;;;;;3.72;1.30;;;18.90;99.90;;;;;;5031956;28;20470;-77
2022/07/14 03:38:40;;;;;;;3.70;1.50;;;18.90;99.90;;;;;;5031807;28;20021;-77
2022/07/14 03:41:06;;;;;;;2.47;1.38;;;18.90;99.90;;;;;;5030959;28;20157;-77
2022/07/14 03:43:32;;;;;;;2.00;1.20;;;18.90;99.90;;;;;;5031592;28;20364;-77
2022/07/14 03:45:57;;;;;;;4.13;1.50;;;18.90;99.90;;;;;;5026543;28;20136;-77
2022/07/14 03:48:23;;;;;;;8.57;1.67;;;18.80;99.90;;;;;;5026107;28;20026;-78
2022/07/14 03:50:49;;;;;;;2.60;1.50;;;18.80;99.90;;;;;;5021718;28;20026;-78
2022/07/14 03:53:15;;;;;;;4.45;1.70;;;18.80;99.90;;;;;;5019259;28;20017;-78
2022/07/14 03:55:44;;;;;;;4.18;1.77;;;18.80;99.90;;;;;;5029723;28;20490;-78
2022/07/14 03:58:09;;;;;;;4.47;1.80;;;18.80;99.90;;;;;;5031702;28;20505;-78
2022/07/14 04:00:35;;;;;;;5.45;2.03;;;18.80;99.90;;;;;;5031155;28;20041;-75
2022/07/14 04:03:00;;;;;;;3.33;2.25;;;18.80;99.90;;;;;;5028414;28;20437;-76
2022/07/14 04:05:26;;;;;;;4.57;2.00;;;18.70;99.90;;;;;;5007479;28;20040;-77
2022/07/14 04:07:51;;;;;;;6.05;1.60;;;18.80;99.90;;;;;;5017873;28;20059;-79
2022/07/14 04:10:18;;;;;;;2.60;1.42;;;18.80;99.90;;;;;;5003976;28;20026;-71
2022/07/14 04:12:44;;;;;;;4.45;1.58;;;18.80;99.90;;;;;;4995544;28;20029;-71
2022/07/14 04:15:10;;;;;;;3.47;1.50;;;18.80;99.90;;;;;;4994618;28;20034;-71
2022/07/14 04:17:35;;;;;;;4.35;1.42;;;18.80;99.90;;;;;;5012563;28;20022;-71
2022/07/14 04:20:01;;;;;;;3.80;1.80;;;18.80;99.90;;;;;;5014790;28;20347;-70
2022/07/14 04:22:27;;;;;;;4.00;1.40;;;18.80;99.90;;;;;;5014113;28;20036;-71
2022/07/14 04:24:52;;;;;;;4.65;1.77;;;18.80;99.90;;;;;;5014090;28;20578;-71
2022/07/14 04:27:19;;;;;;;4.65;1.65;;;18.80;99.90;;;;;;5014247;28;20516;-71
2022/07/14 04:29:45;;;;;;;3.28;1.35;;;18.80;99.90;;;;;;5014248;28;20018;-71
2022/07/14 04:32:10;;;;;;;5.70;1.83;;;18.80;99.90;;;;;;5014071;28;20055;-70
2022/07/14 04:34:36;;;;;;;7.18;1.80;;;18.80;99.90;;;;;;4996246;28;20054;-71
2022/07/14 04:37:02;;;;;;;3.00;1.67;;;18.90;99.90;;;;;;5013962;28;20021;-71
2022/07/14 04:39:28;;;;;;;5.07;1.77;;;19.00;99.90;;;;;;5012896;28;20157;-71
2022/07/14 04:41:53;;;;;;;3.55;1.30;;;19.10;99.90;;;;;;5011850;28;20033;-70
2022/07/14 04:44:19;;;;;;;4.47;1.60;;;19.20;99.90;;;;;;4997465;28;20115;-71
2022/07/14 04:46:52;;;;;;;6.13;1.73;;;19.30;99.90;;;;;;5014138;28;20103;-70
2022/07/14 04:52:02;;;;;;;3.13;1.40;;;19.50;99.90;;;;;;5002958;28;20032;-72
2022/07/14 04:54:29;;;;;;;4.13;1.50;;;19.60;99.90;;;;;;5004377;28;20389;-72
2022/07/14 04:56:54;;;;;;;2.55;1.30;;;19.60;99.90;;;;;;4987133;28;20041;-72
2022/07/14 04:59:20;;;;;;;3.00;1.27;;;19.60;99.90;;;;;;5004421;28;20033;-72
2022/07/14 05:01:46;;;;;;;3.67;1.60;;;19.70;99.90;;;;;;5037264;23;20118;-72
2022/07/14 05:04:11;;;;;;;9.18;1.60;;;19.70;99.90;;;;;;5024269;28;20041;-72
2022/07/14 05:06:37;;;;;;;4.13;1.35;;;19.80;99.90;;;;;;5025088;28;20117;-72
2022/07/14 05:09:03;;;;;;;4.13;1.50;;;19.80;99.90;;;;;;5029216;28;20029;-72
2022/07/14 05:11:29;;;;;;;3.75;1.73;;;19.80;99.90;;;;;;5024107;28;20029;-71
2022/07/14 05:13:55;;;;;;;3.42;2.10;;;19.80;99.90;;;;;;5010766;28;20083;-71
2022/07/14 05:16:21;;;;;;;4.40;1.92;;;19.70;99.90;;;;;;5021063;28;20033;-71
2022/07/14 05:18:46;;;;;;;5.35;2.30;;;19.70;99.90;;;;;;5024881;28;20037;-71
2022/07/14 05:21:12;;;;;;;3.85;2.10;;;19.60;99.90;;;;;;5001732;28;20027;-71
2022/07/14 05:23:42;;;;;;;5.55;2.10;;;19.60;99.90;;;;;;5020623;28;20381;-71
2022/07/14 05:26:11;;;;;;;6.90;2.03;;;19.60;99.90;;;;;;5017118;28;20483;-71
2022/07/14 05:28:39;;;;;;;10.25;2.53;;;19.60;99.90;;;;;;5021237;28;20796;-71
2022/07/14 05:31:05;;;;;;;4.55;2.30;;;19.60;99.90;;;;;;5018376;28;20029;-70
2022/07/14 05:33:31;;;;;;;6.32;2.00;;;19.80;99.90;;;;;;5018406;28;20374;-71
2022/07/14 05:35:56;;;;;;;6.22;2.55;;;19.90;99.90;;;;;;5026746;28;20037;-71
2022/07/14 05:38:23;;;;;;;4.50;2.35;;;20.00;99.90;;;;;;5026254;28;20033;-71
2022/07/14 05:40:49;;;;;;;4.32;2.17;;;20.10;99.90;;;;;;5025873;28;20017;-71
2022/07/14 05:43:15;;;;;;;6.35;2.47;;;20.30;99.90;;;;;;5018754;28;20474;-71
2022/07/14 05:45:41;;;;;;;6.53;2.17;;;20.50;99.90;;;;;;5015135;28;20041;-70
2022/07/14 05:48:06;;;;;;;5.63;2.55;;;20.60;99.90;;;;;;5015044;28;20513;-70
2022/07/14 05:50:32;;;;;;;3.72;1.60;;;20.90;99.90;;;;;;5016510;28;20044;-70
2022/07/14 05:52:57;;;;;;;4.40;1.30;;;21.00;99.90;;;;;;5019948;28;20056;-70
2022/07/14 05:55:23;;;;;;;4.68;1.75;;;21.20;99.90;;;;;;5024880;28;20040;-71
2022/07/14 05:57:51;;;;;;;5.72;1.77;;;21.40;99.90;;;;;;5017580;28;20117;-70
2022/07/14 06:00:17;;;;;;;4.43;1.80;;;21.70;99.90;;;;;;5022686;28;20044;-71
2022/07/14 06:02:44;;;;;;;8.68;1.98;;;21.90;99.90;;;;;;5022631;28;20501;-70
2022/07/14 06:05:10;;;;;;;8.68;1.70;;;22.10;99.90;;;;;;5021814;28;20034;-70
2022/07/14 06:07:36;;;;;;;10.85;1.60;;;22.30;99.90;;;;;;5030975;28;20057;-70
2022/07/14 06:10:03;;;;;;;2.35;1.30;;;22.50;99.90;;;;;;5025736;28;20029;-71
2022/07/14 06:12:29;;;;;;;9.30;1.50;;;22.70;99.90;;;;;;5024386;28;20033;-70
2022/07/14 06:14:54;;;;;;;7.10;1.80;;;22.90;99.90;;;;;;5023495;28;20032;-77
2022/07/14 06:17:20;;;;;;;4.70;1.48;;;23.10;99.90;;;;;;5027792;28;20738;-77
2022/07/14 06:19:45;;;;;;;3.45;1.50;;;23.30;99.90;;;;;;5015351;28;20029;-77
2022/07/14 06:22:11;;;;;;;3.38;1.40;;;23.50;99.90;;;;;;5024279;28;20053;-78
2022/07/14 06:24:38;;;;;;;3.20;1.75;;;23.70;99.90;;;;;;5027220;28;20141;-77
2022/07/14 06:27:03;;;;;;;4.30;1.58;;;23.90;99.90;;;;;;5029754;28;20025;-77
2022/07/14 06:29:29;;;;;;;8.40;1.80;;;24.00;99.90;;;;;;5029942;28;20104;-78
2022/07/14 06:31:55;;;;;;;5.60;1.58;;;24.10;99.90;;;;;;5030145;28;20071;-78
2022/07/14 06:34:25;;;;;;;5.68;1.73;;;24.30;99.90;;;;;;5028231;28;20026;-77
2022/07/14 06:36:50;;;;;;;5.65;1.70;;;24.50;99.90;;;;;;5024788;28;20030;-77
2022/07/14 06:39:16;;;;;;;5.63;1.60;;;24.60;99.90;;;;;;5021089;28;20048;-78
2022/07/14 06:41:42;;;;;;;6.78;1.35;;;24.90;99.90;;;;;;5029980;28;20123;-78
2022/07/14 06:44:08;;;;;;;8.00;1.50;;;25.10;99.90;;;;;;5012018;28;20386;-78
2022/07/14 06:46:34;;;;;;;3.33;1.40;;;25.50;99.90;;;;;;5029234;28;20100;-78
2022/07/14 06:48:59;;;;;;;4.28;1.45;;;25.60;99.90;;;;;;5029795;28;20029;-78
2022/07/14 06:51:26;;;;;;;4.35;1.50;;;25.60;99.90;;;;;;5029711;28;20053;-78
2022/07/14 06:53:52;;;;;;;6.88;1.48;;;25.70;99.90;;;;;;5029251;28;20051;-78
2022/07/14 06:56:18;;;;;;;2.72;1.33;;;25.70;99.90;;;;;;5019893;28;20018;-78
2022/07/14 06:58:44;;;;;;;3.17;1.40;;;25.80;99.90;;;;;;5023450;28;20366;-77
2022/07/14 07:01:09;;;;;;;3.10;1.08;;;25.90;99.90;;;;;;5030360;28;20053;-77
2022/07/14 07:03:35;;;;;;;5.60;1.23;;;25.90;99.90;;;;;;5030691;28;20034;-77
2022/07/14 07:08:45;;;;;;;3.95;1.13;;;26.10;99.70;;;;;;5024207;28;20170;-77
2022/07/14 07:11:11;;;;;;;4.47;1.10;;;26.10;99.60;;;;;;5005927;28;20136;-77
2022/07/14 07:13:39;;;;;;;4.57;1.45;;;26.20;99.80;;;;;;5025060;28;20364;-77
2022/07/14 07:16:06;;;;;;;3.97;1.20;;;26.40;98.40;;;;;;5027474;28;20572;-77
2022/07/14 07:18:33;;;;;;;4.03;1.30;;;26.50;98.60;;;;;;5013136;28;20041;-77
2022/07/14 07:20:58;;;;;;;3.35;1.40;;;26.50;97.20;;;;;;5031034;28;20030;-78
2022/07/14 07:23:25;;;;;;;4.55;1.10;;;26.60;96.80;;;;;;5029952;28;20071;-77
2022/07/14 07:25:52;;;;;;;4.13;1.23;;;26.60;96.90;;;;;;5012890;28;20034;-77
2022/07/14 07:28:17;;;;;;;4.25;1.20;;;26.60;98.10;;;;;;5030035;28;20370;-77
2022/07/14 07:30:43;;;;;;;2.63;1.08;;;26.50;97.30;;;;;;5030035;28;20041;-77
2022/07/14 07:33:09;;;;;;;3.30;1.10;;;26.50;98.00;;;;;;5029973;28;20104;-77
2022/07/14 07:35:38;;;;;;;2.97;1.10;;;26.50;96.80;;;;;;5029985;28;20061;-77
2022/07/14 07:38:04;;;;;;;4.40;0.95;;;26.70;97.30;;;;;;5011643;28;20626;-77
2022/07/14 07:40:29;;;;;;;4.40;1.25;;;26.70;98.20;;;;;;5029945;28;20037;-77
2022/07/14 07:42:55;;;;;;;6.72;1.20;;;26.90;97.80;;;;;;5029673;28;20033;-77
2022/07/14 07:45:21;;;;;;;4.55;1.30;;;27.00;96.10;;;;;;5029436;28;20061;-77
2022/07/14 07:47:46;;;;;;;3.35;1.15;;;27.10;96.00;;;;;;5029482;28;20105;-77
2022/07/14 07:50:12;;;;;;;4.43;1.10;;;27.10;93.70;;;;;;5028978;28;20024;-78
2022/07/14 07:52:38;;;;;;;3.58;1.20;;;27.10;94.90;;;;;;5007797;28;20542;-79
2022/07/14 07:55:08;;;;;;;5.55;1.27;;;27.10;94.40;;;;;;5010001;28;20131;-79
2022/07/14 07:57:35;;;;;;;13.85;1.50;;;27.20;94.50;;;;;;5009110;28;20417;-79
2022/07/14 08:00:00;;;;;;;7.82;1.40;;;27.30;93.80;;;;;;5004395;28;20033;-79
2022/07/14 08:02:26;;;;;;;6.13;1.35;;;27.30;94.40;;;;;;5010206;28;20132;-78
2022/07/14 08:04:52;;;;;;;4.72;1.40;;;27.30;94.40;;;;;;5011000;28;20422;-79
2022/07/14 08:07:18;;;;;;;7.97;1.10;;;27.50;92.30;;;;;;5027934;28;20029;-79
2022/07/14 08:09:45;;;;;;;2.70;0.93;;;27.60;91.80;;;;;;5028639;28;20029;-79
2022/07/14 08:12:10;;;;;;;5.55;1.60;;;27.70;91.00;;;;;;5027171;28;20029;-79
2022/07/14 08:14:48;;;;;;;7.35;1.35;;;27.70;92.00;;;;;;5018025;28;20102;-79
2022/07/14 08:17:14;;;;;;;6.10;1.30;;;27.80;91.30;;;;;;5017945;28;20040;-79
2022/07/14 08:19:39;;;;;;;4.28;1.10;;;27.80;90.70;;;;;;5010105;28;20448;-75
2022/07/14 08:22:06;;;;;;;7.90;1.60;;;27.90;89.30;;;;;;5017217;28;20037;-78
2022/07/14 08:24:32;;;;;;;9.13;1.20;;;27.90;87.80;;;;;;5027448;28;20041;-78
2022/07/14 08:26:57;;;;;;;5.97;1.08;;;27.90;88.30;;;;;;5026592;28;20033;-78
2022/07/14 08:29:23;;;;;;;4.45;1.20;;;27.90;87.80;;;;;;5027458;28;20482;-78
2022/07/14 08:31:49;;;;;;;3.78;1.13;;;27.90;86.80;;;;;;5010465;28;20410;-78
2022/07/14 08:34:14;;;;;;;1.50;1.10;;;27.80;85.10;;;;;;5012192;28;20047;-78
2022/07/14 08:36:40;;;;;;;6.22;1.30;;;27.90;84.70;;;;;;5027823;28;20033;-78
2022/07/14 08:39:08;;;;;;;4.85;1.15;;;27.90;86.90;;;;;;5027417;28;20355;-78
2022/07/14 08:41:34;;;;;;;4.00;0.93;;;28.00;84.50;;;;;;5027061;28;20032;-78
2022/07/14 08:44:00;;;;;;;5.18;1.27;;;28.00;83.30;;;;;;5006595;28;20083;-77
2022/07/14 08:46:26;;;;;;;3.42;1.35;;;28.00;83.40;;;;;;5009611;28;20026;-77
2022/07/14 08:48:53;;;;;;;2.50;1.00;;;28.10;82.40;;;;;;5030367;28;20014;-78
2022/07/14 08:51:19;;;;;;;5.20;1.05;;;28.00;82.10;;;;;;5028088;28;20028;-78
2022/07/14 08:53:46;;;;;;;4.40;0.95;;;28.10;82.30;;;;;;5027442;28;20112;-77
2022/07/14 08:56:11;;;;;;;4.15;1.02;;;28.20;82.50;;;;;;5030223;28;20022;-77
2022/07/14 08:58:39;;;;;;;3.70;1.45;;;28.20;79.60;;;;;;5028513;28;20663;-78
2022/07/14 09:01:05;;;;;;;4.25;1.05;;;28.20;80.30;;;;;;5030311;28;20021;-78
2022/07/14 09:03:31;;;;;;;6.28;1.10;;;28.30;79.20;;;;;;5029631;28;20029;-77
2022/07/14 09:05:57;;;;;;;2.72;0.90;;;28.40;78.40;;;;;;5029677;28;20484;-77
2022/07/14 09:08:22;;;;;;;1.65;1.00;;;28.50;79.60;;;;;;5027758;28;20037;-77
2022/07/14 09:10:48;;;;;;;7.20;1.75;;;28.70;79.70;;;;;;5029533;28;20063;-77
2022/07/14 09:13:18;;;;;;;3.70;1.35;;;28.70;78.30;;;;;;5024428;28;20112;-77
2022/07/14 09:15:45;;;;;;;2.08;1.00;;;28.70;79.60;;;;;;5024730;28;20152;-78
2022/07/14 09:18:21;;;;;;;4.95;1.25;;;28.90;78.80;;;;;;5029549;28;20025;-78
2022/07/14 09:20:48;;;;;;;4.40;1.13;;;28.90;79.70;;;;;;5002021;28;20029;-78
2022/07/14 09:23:13;;;;;;;3.28;0.88;;;29.10;79.30;;;;;;5029443;28;20485;-78
2022/07/14 09:25:39;;;;;;;3.38;1.23;;;29.20;77.60;;;;;;5011202;28;20033;-78
2022/07/14 09:28:08;;;;;;;1.85;1.10;;;29.50;77.00;;;;;;5028613;28;20374;-78
2022/07/14 09:30:34;;;;;;;3.92;1.20;;;29.60;75.50;;;;;;5028769;28;20025;-78
2022/07/14 09:33:02;;;;;;;3.40;0.85;;;29.70;76.00;;;;;;5028902;28;20409;-78
2022/07/14 09:35:34;;;;;;;2.58;1.08;;;29.80;75.30;;;;;;5021687;28;20104;-78
2022/07/14 09:38:12;;;;;;;3.08;1.05;;;30.00;73.60;;;;;;5005337;28;20037;-77
2022/07/14 09:40:38;;;;;;;4.43;0.95;;;30.10;75.30;;;;;;5027286;28;20026;-78
2022/07/14 09:43:06;;;;;;;1.92;1.10;;;30.40;75.80;;;;;;5030339;28;20033;-78
2022/07/14 09:45:34;;;;;;;1.45;0.90;;;30.70;75.20;;;;;;5030205;28;20108;-78
2022/07/14 09:48:13;;;;;;;2.65;1.00;;;31.00;72.20;;;;;;5029283;28;20138;-78
2022/07/14 09:50:56;;;;;;;2.53;1.20;;;31.20;72.30;;;;;;5024525;28;20131;-78
2022/07/14 09:53:26;;;;;;;3.63;1.00;;;31.40;73.00;;;;;;5023815;28;20539;-78
2022/07/14 09:56:04;;;;;;;2.17;0.95;;;31.60;71.30;;;;;;5009555;28;20041;-78
2022/07/14 09:58:44;;;;;;;2.17;1.10;;;31.80;70.60;;;;;;5017474;28;20025;-78
2022/07/14 10:01:15;;;;;;;5.40;1.23;;;31.90;69.40;;;;;;5017838;28;20030;-76
2022/07/14 10:03:44;;;;;;;3.65;1.10;;;32.10;71.40;;;;;;5030419;28;20766;-76
2022/07/14 10:06:11;;;;;;;2.35;1.00;;;32.20;70.50;;;;;;5012187;28;20541;-76
2022/07/14 10:08:44;;;;;;;5.35;1.20;;;32.40;70.50;;;;;;5029746;28;20466;-76
2022/07/14 10:11:13;;;;;;;2.50;1.30;;;32.40;69.60;;;;;;5029586;28;20092;-76
2022/07/14 10:13:39;;;;;;;2.70;0.90;;;32.50;68.60;;;;;;5023616;28;20435;-75
2022/07/14 10:16:06;;;;;;;1.95;1.00;;;32.50;69.80;;;;;;5029891;28;20080;-75
2022/07/14 10:18:33;;;;;;;4.20;0.93;;;32.70;69.60;;;;;;5011756;28;20083;-75
2022/07/14 10:21:01;;;;;;;2.45;0.82;;;33.10;69.40;;;;;;5029256;28;20030;-75
2022/07/14 10:23:29;;;;;;;1.33;0.90;;;33.30;67.10;;;;;;5028383;28;20158;-75
2022/07/14 10:25:59;;;;;;;1.52;0.88;;;33.50;66.90;;;;;;5029800;28;20030;-75
2022/07/14 10:28:26;;;;;;;1.90;1.15;;;33.50;64.90;;;;;;5017338;28;20043;-76
2022/07/14 10:31:09;;;;;;;3.92;0.80;;;33.70;62.00;;;;;;5028001;28;20148;-77
2022/07/14 10:33:47;;;;;;;6.18;1.02;;;33.70;62.30;;;;;;5029266;28;20028;-76
2022/07/14 10:36:33;;;;;;;10.20;1.10;;;33.90;63.00;;;;;;5019616;28;20026;-76
2022/07/14 10:39:06;;;;;;;2.28;0.90;;;34.20;62.60;;;;;;5027655;28;20025;-75
2022/07/14 10:42:11;;;;;;;4.47;0.82;;;34.30;61.60;;;;;;5029403;28;20053;-76
2022/07/14 10:44:40;;;;;;;4.72;0.80;;;34.30;61.40;;;;;;5029373;28;20540;-76
2022/07/14 10:47:13;;;;;;;5.78;1.00;;;34.60;62.10;;;;;;5028982;28;20122;-76
2022/07/14 10:50:04;;;;;;;2.30;1.05;;;34.80;60.70;;;;;;5028826;28;20025;-76
2022/07/14 10:52:31;;;;;;;2.45;0.90;;;35.00;60.70;;;;;;5012962;28;20036;-76
2022/07/14 10:55:17;;;;;;;2.42;0.73;;;35.50;57.20;;;;;;4995902;28;20054;-76
2022/07/14 10:58:01;;;;;;;2.20;0.80;;;35.40;54.90;;;;;;5029082;28;20068;-76
2022/07/14 11:00:43;;;;;;;;;;;35.60;57.80;;;;;;5029475;28;20100;-76
2022/07/14 11:03:43;;;;;;;5.28;1.00;;;35.60;55.80;;;;;;5015987;28;20518;-76
2022/07/14 11:06:09;;;;;;;3.38;0.90;;;35.40;55.80;;;;;;4996083;28;20505;-75
2022/07/14 11:08:42;;;;;;;4.63;0.90;;;35.20;58.40;;;;;;5022935;28;20029;-75
2022/07/14 11:11:23;;;;;;;5.70;0.70;;;35.00;58.80;;;;;;5003215;28;20092;-77
2022/07/14 11:14:00;;;;;;;2.58;0.75;;;35.20;55.30;;;;;;5010729;28;20030;-76
2022/07/14 11:16:45;;;;;;;3.10;0.90;;;35.00;56.60;;;;;;5028947;28;20024;-77
2022/07/14 11:19:35;;;;;;;3.22;1.02;;;34.90;58.20;;;;;;5028545;28;20023;-77
2022/07/14 11:22:20;;;;;;;4.80;0.88;;;35.10;57.40;;;;;;5022370;28;20029;-76
2022/07/14 11:24:46;;;;;;;2.47;0.85;;;35.20;56.90;;;;;;5028851;28;20032;-77
2022/07/14 11:27:29;;;;;;;3.33;0.80;;;35.20;55.80;;;;;;5024615;28;20029;-77
2022/07/14 11:29:57;;;;;;;2.78;0.90;;;35.10;55.40;;;;;;5017317;28;20026;-76
2022/07/14 11:32:31;;;;;;;3.45;1.13;;;35.10;53.30;;;;;;5010047;28;20091;-77
2022/07/14 11:38:23;;;;;;;6.00;1.10;;;34.90;54.30;;;;;;5028770;28;20121;-77
2022/07/14 11:40:53;;;;;;;4.10;1.00;;;35.10;52.90;;;;;;5004529;28;20101;-77
2022/07/14 11:43:36;;;;;;;3.10;0.82;;;35.20;54.10;;;;;;5027623;28;20202;-77
2022/07/14 11:46:13;;;;;;;4.50;0.95;;;35.30;52.70;;;;;;5028205;28;20796;-76
2022/07/14 11:48:45;;;;;;;3.15;0.75;;;35.10;50.40;;;;;;5028427;28;20117;-76
2022/07/14 11:51:19;;;;;;;9.43;1.15;;;34.90;51.80;;;;;;5019909;28;20029;-76
2022/07/14 11:53:46;;;;;;;1.17;0.60;;;35.00;52.00;;;;;;5028481;28;20443;-76
2022/07/14 11:56:12;;;;;;;5.30;0.80;;;35.20;52.00;;;;;;5028456;28;20068;-76
2022/07/14 11:58:39;;;;;;;2.88;0.73;;;35.20;51.10;;;;;;5021946;28;20053;-75
2022/07/14 12:01:07;;;;;;;1.98;0.68;;;35.40;50.60;;;;;;5009705;28;20083;-75
2022/07/14 12:03:33;;;;;;;2.83;0.90;;;35.40;50.30;;;;;;5020945;28;20255;-75
2022/07/14 12:06:00;;;;;;;2.40;0.80;;;35.20;50.30;;;;;;5028342;28;20205;-76
2022/07/14 12:08:29;;;;;;;4.03;0.85;;;35.30;51.80;;;;;;5028031;28;20425;-76
2022/07/14 12:11:01;;;;;;;3.53;0.70;;;35.60;53.70;;;;;;5024442;28;20101;-76
2022/07/14 12:13:26;;;;;;;2.55;0.75;;;36.10;51.80;;;;;;5023007;28;20028;-76
2022/07/14 12:15:52;;;;;;;1.67;0.70;;;36.30;49.50;;;;;;5023466;28;20037;-75
2022/07/14 12:18:17;;;;;;;3.60;0.80;;;36.60;49.10;;;;;;5008972;28;20035;-75
2022/07/14 12:20:45;;;;;;;2.75;0.70;;;36.60;48.50;;;;;;5028190;28;20055;-75
2022/07/14 12:23:13;;;;;;;3.63;1.00;;;36.70;49.00;;;;;;5025641;28;20026;-75
2022/07/14 12:25:44;;;;;;;3.88;0.85;;;36.80;49.30;;;;;;5015579;28;20085;-74
2022/07/14 12:28:15;;;;;;;4.30;1.00;;;37.00;48.90;;;;;;5004877;28;20052;-75
2022/07/14 12:30:51;;;;;;;2.35;1.00;;;37.10;49.30;;;;;;5023666;28;20474;-74
2022/07/14 12:33:21;;;;;;;1.60;0.77;;;36.90;48.50;;;;;;5027633;28;20553;-74
2022/07/14 12:35:54;;;;;;;4.72;0.93;;;36.40;48.60;;;;;;5022278;28;20029;-75
2022/07/14 12:38:22;;;;;;;4.65;0.77;;;36.50;48.10;;;;;;5027878;28;20021;-75
2022/07/14 12:40:52;;;;;;;2.20;0.85;;;36.60;51.20;;;;;;5009988;28;20191;-75
2022/07/14 12:43:18;;;;;;;5.55;1.10;;;36.90;50.60;;;;;;5024752;28;20029;-75
2022/07/14 12:46:13;;;;;;;4.18;0.90;;;37.30;48.40;;;;;;5022732;28;20167;-75
2022/07/14 12:48:48;;;;;;;4.07;1.10;;;37.70;46.60;;;;;;5020683;28;20040;-75
2022/07/14 12:51:26;;;;;;;3.05;0.93;;;37.90;47.10;;;;;;5024384;28;20029;-75
2022/07/14 12:54:07;;;;;;;1.27;0.77;;;38.10;46.50;;;;;;5020065;28;20030;-75
2022/07/14 12:56:48;;;;;;;1.70;0.93;;;38.10;46.80;;;;;;5023221;28;20030;-75
2022/07/14 12:59:20;;;;;;;2.58;0.82;;;37.80;46.20;;;;;;5028025;28;20048;-75
2022/07/14 13:01:53;;;;;;;4.93;0.80;;;37.30;47.00;;;;;;5027098;28;20045;-75
2022/07/14 13:04:58;;;;;;;3.20;0.95;;;37.50;47.20;;;;;;5025747;28;20131;-76